Time;durP1;ratioP1;P1;durP2;ratioP2;P2;SDS_P1;SDS_P2;PMS_P1;PMS_P2;Temp;Humidity;BMP_temperature;BMP_pressure;BME280_temperature;BME280_humidity;BME280_pressure;Samples;Min_cycle;Max_cycle;Signal;HPM_P1;HPM_P2
2022/12/24 00:00:00;;;;;;;44.60;5.80;;;;;;;10.23;100.00;100618.53;4977320;28;20081;-71
2022/12/24 00:02:25;;;;;;;49.88;5.97;;;;;;;10.20;100.00;100623.91;5013343;28;20052;-71
2022/12/24 00:04:51;;;;;;;41.53;6.53;;;;;;;10.18;100.00;100624.88;5013905;28;20042;-70
2022/12/24 00:07:16;;;;;;;43.05;5.95;;;;;;;10.21;100.00;100622.13;5014835;28;20557;-70
2022/12/24 00:09:41;;;;;;;52.17;7.10;;;;;;;10.16;100.00;100619.66;5014516;28;20080;-71
2022/12/24 00:12:07;;;;;;;41.40;5.95;;;;;;;10.12;100.00;100625.97;5013447;28;20048;-72
2022/12/24 00:14:32;;;;;;;44.85;7.07;;;;;;;10.03;100.00;100632.41;4997129;28;20021;-73
2022/12/24 00:16:57;;;;;;;41.33;6.30;;;;;;;9.99;100.00;100642.19;5014473;28;20449;-71
2022/12/24 00:19:23;;;;;;;53.90;6.85;;;;;;;9.99;100.00;100636.03;5014602;28;20757;-70
2022/12/24 00:21:48;;;;;;;38.28;5.72;;;;;;;10.00;100.00;100627.25;5013599;28;20463;-71
2022/12/24 00:24:13;;;;;;;46.40;6.18;;;;;;;10.02;100.00;100635.09;5013744;28;20370;-70
2022/12/24 00:26:39;;;;;;;51.95;6.57;;;;;;;9.95;100.00;100632.69;5013150;28;20404;-70
2022/12/24 00:29:04;;;;;;;46.83;6.07;;;;;;;9.90;100.00;100645.13;5010855;28;20464;-72
2022/12/24 00:31:30;;;;;;;51.22;6.75;;;;;;;9.85;100.00;100640.00;5011220;28;20396;-72
2022/12/24 00:33:55;;;;;;;37.63;5.63;;;;;;;9.93;100.00;100634.50;4993456;28;20026;-67
2022/12/24 00:36:21;;;;;;;43.53;6.13;;;;;;;9.90;100.00;100644.28;5011438;28;20024;-72
2022/12/24 00:38:46;;;;;;;37.03;6.07;;;;;;;9.81;100.00;100650.72;4993720;28;20026;-70
2022/12/24 00:41:24;;;;;;;54.15;7.95;;;;;;;9.69;100.00;100644.94;4993580;28;20057;-72
2022/12/24 00:44:00;;;;;;;49.33;7.43;;;;;;;9.72;100.00;100652.72;5011291;28;20105;-71
2022/12/24 00:46:27;;;;;;;49.33;6.97;;;;;;;9.75;100.00;100664.91;4992563;28;20284;-71
2022/12/24 00:48:53;;;;;;;45.60;6.78;;;;;;;9.67;100.00;100673.09;5010162;28;20030;-72
2022/12/24 00:51:19;;;;;;;41.00;6.78;;;;;;;9.57;100.00;100674.31;5010469;28;20100;-68
2022/12/24 00:53:45;;;;;;;45.33;7.82;;;;;;;9.64;100.00;100673.19;5010761;28;20033;-69
2022/12/24 00:56:10;;;;;;;51.05;6.45;;;;;;;9.65;100.00;100681.91;4992943;28;20072;-72
2022/12/24 00:58:35;;;;;;;48.45;7.15;;;;;;;9.65;100.00;100674.03;4992600;28;20133;-71
2022/12/24 01:01:01;;;;;;;42.45;6.32;;;;;;;9.55;100.00;100676.09;4992978;28;20104;-71
2022/12/24 01:03:35;;;;;;;39.00;6.68;;;;;;;9.58;100.00;100684.75;5010843;28;20061;-72
2022/12/24 01:06:06;;;;;;;51.35;6.70;;;;;;;9.54;100.00;100683.13;5010553;28;20033;-71
2022/12/24 01:08:32;;;;;;;41.38;6.07;;;;;;;9.57;100.00;100696.19;5011062;28;20076;-72
2022/12/24 01:10:57;;;;;;;42.65;5.38;;;;;;;9.59;100.00;100686.47;5009497;28;20528;-71
2022/12/24 01:13:23;;;;;;;47.03;6.10;;;;;;;9.56;100.00;100690.97;5009077;28;20124;-72
2022/12/24 01:15:48;;;;;;;59.67;7.70;;;;;;;9.50;100.00;100701.69;5009884;28;20022;-68
2022/12/24 01:18:13;;;;;;;42.10;7.38;;;;;;;9.45;100.00;100705.31;5009914;28;20034;-70
2022/12/24 01:20:39;;;;;;;49.78;6.78;;;;;;;9.49;100.00;100708.72;5010253;28;20026;-71
2022/12/24 01:23:04;;;;;;;52.40;7.38;;;;;;;9.50;100.00;100702.56;5009862;28;20037;-70
2022/12/24 01:25:30;;;;;;;42.75;5.45;;;;;;;9.52;100.00;100706.00;4992919;28;20029;-69
2022/12/24 01:27:55;;;;;;;44.20;6.07;;;;;;;9.51;100.00;100717.41;5009277;28;20030;-71
2022/12/24 01:30:20;;;;;;;51.63;6.35;;;;;;;9.50;100.00;100718.34;5010041;28;20033;-69
2022/12/24 01:32:46;;;;;;;50.50;6.35;;;;;;;9.51;100.00;100717.41;4992830;28;20034;-70
2022/12/24 01:35:11;;;;;;;38.58;5.47;;;;;;;9.53;100.00;100717.38;5010027;28;20029;-69
2022/12/24 01:37:37;;;;;;;44.13;5.63;;;;;;;9.45;100.00;100721.09;5010290;28;20049;-71
2022/12/24 01:45:35;;;;;;;45.03;6.35;;;;;;;9.36;100.00;100737.16;5010296;28;20044;-71
2022/12/24 01:48:01;;;;;;;41.47;6.53;;;;;;;9.35;100.00;100746.84;5010027;28;20026;-71
2022/12/24 01:50:27;;;;;;;47.70;5.82;;;;;;;9.29;100.00;100747.00;4992351;28;20026;-70
2022/12/24 01:52:52;;;;;;;44.90;6.30;;;;;;;9.37;100.00;100743.28;4991433;28;20042;-70
2022/12/24 01:55:18;;;;;;;48.88;6.90;;;;;;;9.41;100.00;100750.16;4992682;28;20106;-71
2022/12/24 01:57:55;;;;;;;48.47;5.78;;;;;;;9.40;100.00;100758.97;4990699;28;20422;-69
2022/12/24 02:00:21;;;;;;;34.60;5.80;;;;;;;9.33;100.00;100767.03;5007086;28;20036;-71
2022/12/24 02:02:48;;;;;;;44.60;5.88;;;;;;;9.36;100.00;100766.09;4991542;28;20042;-71
2022/12/24 02:05:15;;;;;;;47.88;7.22;;;;;;;9.33;100.00;100769.69;5008232;28;20613;-71
2022/12/24 02:10:18;;;;;;;47.72;6.28;;;;;;;9.38;100.00;100773.94;4986597;26;20116;-59
2022/12/24 02:12:44;;;;;;;46.50;6.03;;;;;;;9.32;100.00;100772.34;4989388;28;20034;-62
2022/12/24 02:15:12;;;;;;;38.10;5.43;;;;;;;9.29;100.00;100782.97;4989854;28;20022;-62
2022/12/24 02:17:55;;;;;;;41.55;5.63;;;;;;;9.32;100.00;100777.59;4989960;28;20110;-61
2022/12/24 02:20:45;;;;;;;37.75;5.55;;;;;;;9.32;100.00;100775.84;4970261;28;20462;-60
2022/12/24 02:23:27;;;;;;;37.33;4.82;;;;;;;9.39;100.00;100778.31;4968522;28;20034;-61
2022/12/24 02:26:11;;;;;;;47.63;6.40;;;;;;;9.39;100.00;100780.94;4968511;28;20089;-61
2022/12/24 02:29:01;;;;;;;35.28;6.35;;;;;;;9.51;100.00;100779.69;4969252;28;20134;-63
2022/12/24 02:31:37;;;;;;;40.70;4.75;;;;;;;9.52;100.00;100781.41;4970800;28;20034;-63
2022/12/24 02:34:36;;;;;;;30.35;4.95;;;;;;;9.60;100.00;100788.16;4970469;28;20058;-63
2022/12/24 02:37:13;;;;;;;27.50;3.72;;;;;;;9.75;100.00;100787.75;4970131;28;20469;-63
2022/12/24 02:39:48;;;;;;;47.58;4.88;;;;;;;9.77;100.00;100796.44;4969265;28;20077;-61
2022/12/24 02:42:18;;;;;;;37.30;5.35;;;;;;;9.84;100.00;100798.84;4968035;28;20499;-64
2022/12/24 02:44:50;;;;;;;36.42;4.63;;;;;;;9.92;100.00;100784.56;4969146;28;20061;-61
2022/12/24 02:47:16;;;;;;;32.50;4.72;;;;;;;9.91;100.00;100799.50;4983747;28;20030;-63
2022/12/24 02:49:46;;;;;;;36.75;5.10;;;;;;;10.00;100.00;100793.09;4991548;28;20084;-62
2022/12/24 02:52:33;;;;;;;36.00;5.07;;;;;;;10.00;100.00;100795.72;4989630;28;20033;-62
2022/12/24 02:55:03;;;;;;;40.53;5.22;;;;;;;10.09;100.00;100795.41;5008947;28;20117;-63
2022/12/24 02:57:46;;;;;;;45.85;6.15;;;;;;;10.08;100.00;100798.97;4990976;28;20022;-62
2022/12/24 03:00:15;;;;;;;43.05;5.03;;;;;;;10.23;100.00;100797.59;5008924;28;20032;-62
2022/12/24 03:03:06;;;;;;;45.60;5.53;;;;;;;10.14;100.00;100807.59;5009302;28;20041;-63
2022/12/24 03:05:37;;;;;;;57.80;6.47;;;;;;;10.19;100.00;100800.38;4991519;28;20101;-61
2022/12/24 03:08:13;;;;;;;42.97;6.60;;;;;;;10.10;100.00;100796.28;5008396;28;20022;-62
2022/12/24 03:11:08;;;;;;;45.13;5.88;;;;;;;10.23;100.00;100802.84;5000511;28;20037;-62
2022/12/24 03:13:34;;;;;;;36.15;4.80;;;;;;;10.25;100.00;100810.72;4986410;28;20058;-61
2022/12/24 03:16:03;;;;;;;43.40;5.13;;;;;;;10.29;100.00;100812.31;4970976;28;20022;-62
2022/12/24 03:18:29;;;;;;;54.17;8.20;;;;;;;10.26;100.00;100822.13;4971641;28;20052;-61
2022/12/24 03:21:16;;;;;;;48.28;6.38;;;;;;;10.23;100.00;100833.59;4971890;28;20062;-61
2022/12/24 03:23:42;;;;;;;42.58;5.88;;;;;;;10.34;100.00;100823.59;4955412;28;20025;-62
2022/12/24 03:26:09;;;;;;;53.90;7.20;;;;;;;10.39;100.00;100825.19;4970885;28;20030;-62
2022/12/24 03:28:38;;;;;;;48.38;7.35;;;;;;;10.46;100.00;100810.94;4971943;28;20049;-61
2022/12/24 03:31:05;;;;;;;62.47;6.50;;;;;;;10.34;100.00;100823.59;4988786;28;20034;-59
2022/12/24 03:33:30;;;;;;;50.60;6.80;;;;;;;10.40;100.00;100819.00;4971057;28;20049;-63
2022/12/24 03:35:56;;;;;;;53.53;5.68;;;;;;;10.40;100.00;100824.28;4988964;28;20030;-61
2022/12/24 03:38:21;;;;;;;48.95;6.45;;;;;;;10.38;100.00;100834.03;4988277;28;20030;-62
2022/12/24 03:40:47;;;;;;;40.67;5.82;;;;;;;10.41;100.00;100829.50;4988709;28;20477;-62
2022/12/24 03:43:12;;;;;;;46.95;5.90;;;;;;;10.41;100.00;100828.66;4987774;28;20026;-60
2022/12/24 03:45:37;;;;;;;35.38;6.13;;;;;;;10.40;100.00;100825.16;4988745;28;20109;-62
2022/12/24 03:48:03;;;;;;;50.45;5.93;;;;;;;10.41;100.00;100821.59;4988557;28;20022;-62
2022/12/24 03:50:29;;;;;;;50.03;6.50;;;;;;;10.38;100.00;100828.75;4988336;28;20030;-62
2022/12/24 03:52:54;;;;;;;32.50;5.50;;;;;;;10.42;100.00;100828.56;4988354;28;20038;-62
2022/12/24 03:55:20;;;;;;;49.47;6.72;;;;;;;10.39;100.00;100833.09;4988830;28;20026;-62
2022/12/24 03:57:45;;;;;;;40.80;5.85;;;;;;;10.50;100.00;100841.53;4988223;28;20455;-64
2022/12/24 04:00:11;;;;;;;34.47;5.40;;;;;;;10.53;100.00;100838.78;4988617;28;20030;-61
2022/12/24 04:02:37;;;;;;;39.67;5.88;;;;;;;10.46;100.00;100843.41;4989045;28;20018;-62
2022/12/24 04:05:02;;;;;;;50.38;7.00;;;;;;;10.53;100.00;100832.69;4992100;28;20030;-62
2022/12/24 04:07:28;;;;;;;32.72;5.15;;;;;;;10.56;100.00;100841.31;4991476;28;20086;-62
2022/12/24 04:09:53;;;;;;;43.35;5.38;;;;;;;10.52;100.00;100834.44;4991826;28;20117;-63
2022/12/24 04:12:18;;;;;;;42.22;6.25;;;;;;;10.49;100.00;100843.31;4991436;28;20062;-62
2022/12/24 04:14:44;;;;;;;39.13;7.57;;;;;;;10.45;100.00;100852.22;4992186;28;20033;-63
2022/12/24 04:17:09;;;;;;;53.05;6.00;;;;;;;10.52;100.00;100844.09;4992167;28;20026;-62
2022/12/24 04:19:34;;;;;;;40.42;7.35;;;;;;;10.66;100.00;100848.94;4992280;28;20018;-63
2022/12/24 04:21:59;;;;;;;42.72;5.30;;;;;;;10.59;100.00;100846.50;4992315;28;20060;-62
2022/12/24 04:24:25;;;;;;;39.00;6.45;;;;;;;10.55;100.00;100844.00;4992490;28;20488;-62
2022/12/24 04:26:50;;;;;;;31.58;5.00;;;;;;;10.55;100.00;100855.41;4999826;28;20416;-61
2022/12/24 04:29:16;;;;;;;37.10;5.88;;;;;;;10.52;100.00;100857.28;5011273;28;20018;-62
2022/12/24 04:31:41;;;;;;;44.17;5.85;;;;;;;10.42;100.00;100861.97;5010698;28;20065;-62
2022/12/24 04:34:06;;;;;;;38.88;5.90;;;;;;;10.52;100.00;100860.78;4993745;28;20025;-62
2022/12/24 04:36:32;;;;;;;54.08;7.28;;;;;;;10.53;100.00;100861.66;5011439;28;20018;-60
2022/12/24 04:38:57;;;;;;;45.00;6.53;;;;;;;10.56;100.00;100862.41;5010882;28;20026;-63
2022/12/24 04:41:23;;;;;;;34.08;5.60;;;;;;;10.55;100.00;100859.81;5010574;28;20025;-63
2022/12/24 04:43:48;;;;;;;38.40;6.00;;;;;;;10.51;100.00;100864.34;5010272;28;20021;-62
2022/12/24 04:46:17;;;;;;;48.72;5.95;;;;;;;10.33;100.00;100869.25;5010769;28;20033;-61
2022/12/24 04:48:43;;;;;;;40.53;5.40;;;;;;;10.41;100.00;100878.69;5011066;28;20030;-60
2022/12/24 04:51:10;;;;;;;44.65;5.75;;;;;;;10.57;100.00;100881.72;5010604;28;20018;-61
2022/12/24 04:53:36;;;;;;;33.47;4.80;;;;;;;10.62;100.00;100874.50;4993607;28;20529;-62
2022/12/24 04:56:02;;;;;;;37.78;5.32;;;;;;;10.53;100.00;100875.69;4971046;28;20433;-62
2022/12/24 04:58:27;;;;;;;44.45;8.18;;;;;;;10.54;100.00;100882.66;4971355;28;20031;-61
2022/12/24 05:00:53;;;;;;;40.13;6.35;;;;;;;10.58;100.00;100876.41;4970457;28;20034;-62
2022/12/24 05:03:19;;;;;;;46.90;6.70;;;;;;;10.60;100.00;100879.81;4972174;28;20026;-62
2022/12/24 05:05:44;;;;;;;49.58;6.88;;;;;;;10.53;100.00;100878.31;4971884;28;20035;-62
2022/12/24 05:08:10;;;;;;;44.90;6.28;;;;;;;10.49;100.00;100893.38;4971147;28;20113;-62
2022/12/24 05:10:35;;;;;;;47.00;5.85;;;;;;;10.49;100.00;100903.91;4969697;28;20046;-62
2022/12/24 05:13:00;;;;;;;35.58;5.55;;;;;;;10.46;100.00;100892.59;4971481;28;20030;-62
2022/12/24 05:15:26;;;;;;;43.13;6.20;;;;;;;10.38;100.00;100894.59;4998063;28;20041;-62
2022/12/24 05:17:51;;;;;;;49.08;6.88;;;;;;;10.35;100.00;100892.91;5010307;28;20093;-62
2022/12/24 05:20:17;;;;;;;46.70;7.43;;;;;;;10.32;100.00;100891.25;5010844;28;20104;-61
2022/12/24 05:28:17;;;;;;;45.30;7.50;;;;;;;10.38;100.00;100894.59;5011104;28;20401;-62
2022/12/24 05:30:43;;;;;;;45.67;6.43;;;;;;;10.38;100.00;100889.34;5010602;28;20025;-63
2022/12/24 05:33:08;;;;;;;41.50;5.38;;;;;;;10.27;100.00;100885.28;5010130;28;20062;-62
2022/12/24 05:35:33;;;;;;;40.28;6.22;;;;;;;10.31;100.00;100879.00;4994952;28;20022;-63
2022/12/24 05:37:59;;;;;;;53.92;6.70;;;;;;;10.34;100.00;100880.66;5010055;28;20029;-63
2022/12/24 05:40:24;;;;;;;47.30;6.80;;;;;;;10.39;100.00;100877.88;4992695;28;20069;-61
2022/12/24 05:42:50;;;;;;;49.47;6.68;;;;;;;10.34;100.00;100885.91;4972568;28;20037;-61
2022/12/24 05:45:15;;;;;;;48.00;6.22;;;;;;;10.32;100.00;100890.38;4990310;28;20092;-61
2022/12/24 05:47:40;;;;;;;58.53;7.47;;;;;;;10.32;100.00;100888.59;4988148;28;20105;-64
2022/12/24 05:50:06;;;;;;;50.88;6.93;;;;;;;10.34;100.00;100896.47;4982152;28;20414;-62
2022/12/24 05:52:32;;;;;;;45.20;6.22;;;;;;;10.21;100.00;100901.25;4989600;28;20033;-60
2022/12/24 05:54:57;;;;;;;50.55;6.60;;;;;;;10.21;100.00;100903.91;4989647;28;20121;-61
2022/12/24 05:57:22;;;;;;;49.35;7.13;;;;;;;10.13;100.00;100900.63;4988581;28;20029;-62
2022/12/24 05:59:48;;;;;;;58.85;8.00;;;;;;;10.04;100.00;100918.44;4990084;28;20037;-60
2022/12/24 06:02:13;;;;;;;55.72;6.35;;;;;;;10.09;100.00;100920.94;4989544;28;20034;-63
2022/12/24 06:04:38;;;;;;;51.75;7.07;;;;;;;10.09;100.00;100915.66;4990765;28;20022;-62
2022/12/24 06:07:04;;;;;;;57.92;8.93;;;;;;;10.08;100.00;100922.69;4989407;28;20033;-64
2022/12/24 06:09:29;;;;;;;56.50;8.15;;;;;;;10.01;100.00;100926.44;4989089;28;20050;-65
2022/12/24 06:11:55;;;;;;;60.45;7.28;;;;;;;10.04;100.00;100928.97;4984804;28;20177;-62
2022/12/24 06:14:20;;;;;;;57.13;7.22;;;;;;;10.02;100.00;100925.50;4988687;28;20026;-63
2022/12/24 06:16:45;;;;;;;71.85;7.80;;;;;;;9.97;100.00;100943.22;4995588;28;20022;-63
2022/12/24 06:19:11;;;;;;;51.17;7.53;;;;;;;10.04;100.00;100941.25;4989793;28;20072;-63
2022/12/24 06:21:36;;;;;;;53.42;7.82;;;;;;;10.05;100.00;100954.38;4971068;28;20030;-65
2022/12/24 06:24:02;;;;;;;58.53;9.70;;;;;;;10.09;100.00;100963.91;4989259;28;20030;-63
2022/12/24 06:26:27;;;;;;;54.83;7.60;;;;;;;10.22;100.00;100963.53;4987675;28;20473;-63
2022/12/24 06:28:52;;;;;;;55.65;7.97;;;;;;;10.29;100.00;100961.59;4988910;28;20025;-65
2022/12/24 06:31:20;;;;;;;67.10;9.15;;;;;;;10.25;100.00;100963.47;4989151;28;20014;-63
2022/12/24 06:33:46;;;;;;;57.50;8.05;;;;;;;10.21;100.00;100961.84;4989494;28;20030;-62
2022/12/24 06:36:17;;;;;;;53.90;8.07;;;;;;;10.18;100.00;100961.91;4983101;28;20078;-63
2022/12/24 06:38:42;;;;;;;61.15;7.68;;;;;;;10.18;100.00;100961.91;4988783;28;20038;-63
2022/12/24 06:41:07;;;;;;;74.50;8.38;;;;;;;10.23;100.00;100970.53;4985734;28;20026;-64
2022/12/24 06:43:33;;;;;;;59.17;7.50;;;;;;;10.32;100.00;100961.47;4987419;28;20027;-65
2022/12/24 06:46:00;;;;;;;57.25;7.38;;;;;;;10.33;100.00;100953.53;4988544;28;20034;-65
2022/12/24 06:48:25;;;;;;;55.70;7.80;;;;;;;10.28;100.00;100947.56;4988559;28;20049;-61
2022/12/24 06:50:51;;;;;;;59.63;8.05;;;;;;;10.24;100.00;100967.00;4988553;28;20026;-64
2022/12/24 06:53:16;;;;;;;55.17;8.70;;;;;;;10.11;100.00;100951.56;4989065;28;20055;-64
2022/12/24 06:55:41;;;;;;;65.18;8.25;;;;;;;10.07;100.00;100960.47;4988219;28;20018;-61
2022/12/24 06:58:07;;;;;;;61.78;7.43;;;;;;;9.92;100.00;100963.53;5006346;28;20101;-60
2022/12/24 07:00:32;;;;;;;63.55;8.05;;;;;;;9.91;100.00;100967.09;5007327;28;20033;-62
2022/12/24 07:02:58;;;;;;;55.00;7.55;;;;;;;9.86;100.00;100965.47;4988641;28;20034;-63
2022/12/24 07:05:23;;;;;;;63.22;8.00;;;;;;;9.84;100.00;100974.28;5008106;28;20068;-66
2022/12/24 07:07:48;;;;;;;56.17;7.93;;;;;;;9.75;100.00;100978.03;5008095;28;20022;-61
2022/12/24 07:10:15;;;;;;;60.85;8.77;;;;;;;9.69;100.00;100979.09;5006901;28;20046;-60
2022/12/24 07:12:41;;;;;;;54.75;7.05;;;;;;;9.70;100.00;100977.34;5008186;28;20394;-63
2022/12/24 07:15:08;;;;;;;55.15;8.27;;;;;;;9.56;100.00;100973.31;5007635;28;20109;-64
2022/12/24 07:17:33;;;;;;;52.72;6.70;;;;;;;9.54;100.00;100987.41;5007941;28;20437;-64
2022/12/24 07:19:58;;;;;;;55.00;7.75;;;;;;;9.65;100.00;100987.09;5007670;28;20104;-64
2022/12/24 07:22:24;;;;;;;61.90;8.07;;;;;;;9.60;100.00;100992.50;5007736;28;20392;-65
2022/12/24 07:24:49;;;;;;;64.93;8.73;;;;;;;9.57;100.00;100993.44;4992352;28;20465;-65
2022/12/24 07:27:14;;;;;;;57.53;8.00;;;;;;;9.55;100.00;100999.66;4987457;28;20027;-64
2022/12/24 07:29:40;;;;;;;64.97;7.75;;;;;;;9.57;100.00;101001.34;4986648;28;20038;-64
2022/12/24 07:32:05;;;;;;;59.20;7.28;;;;;;;9.53;100.00;101001.47;4987657;28;20432;-64
2022/12/24 07:34:31;;;;;;;53.03;7.35;;;;;;;9.59;100.00;101023.22;4988393;28;20038;-61
2022/12/24 07:36:56;;;;;;;55.75;7.93;;;;;;;9.65;100.00;101018.69;4988073;28;20023;-64
2022/12/24 07:39:21;;;;;;;58.10;8.95;;;;;;;9.71;100.00;101023.78;4991248;28;20026;-64
2022/12/24 07:41:49;;;;;;;66.95;7.47;;;;;;;9.75;100.00;101032.47;4991588;28;20034;-64
2022/12/24 07:44:14;;;;;;;47.42;6.60;;;;;;;9.84;100.00;101038.31;4990697;28;20038;-64
2022/12/24 07:46:40;;;;;;;62.65;8.43;;;;;;;9.88;100.00;101040.88;4990282;28;20041;-63
2022/12/24 07:49:06;;;;;;;53.15;7.70;;;;;;;9.93;100.00;101050.38;4990940;28;20014;-64
2022/12/24 07:51:31;;;;;;;62.15;6.90;;;;;;;9.82;100.00;101044.53;4991221;28;20026;-64
2022/12/24 07:53:56;;;;;;;59.80;8.27;;;;;;;9.85;100.00;101047.94;4974168;28;20029;-61
2022/12/24 07:56:22;;;;;;;67.80;8.45;;;;;;;9.82;100.00;101050.66;4991285;28;20031;-65
2022/12/24 07:58:49;;;;;;;67.97;7.43;;;;;;;9.74;100.00;101065.81;4974813;28;20050;-62
2022/12/24 08:01:14;;;;;;;52.45;6.70;;;;;;;9.76;100.00;101063.13;4991893;28;20065;-65
2022/12/24 08:03:39;;;;;;;60.15;7.53;;;;;;;9.77;100.00;101073.63;4991848;28;20030;-62
2022/12/24 08:06:05;;;;;;;65.68;9.02;;;;;;;9.78;100.00;101067.44;4991673;28;20084;-63
2022/12/24 08:08:30;;;;;;;55.13;7.72;;;;;;;9.78;100.00;101080.59;4991412;28;20034;-62
2022/12/24 08:11:00;;;;;;;60.47;7.53;;;;;;;9.81;100.00;101077.03;4990621;28;20417;-63
2022/12/24 08:13:26;;;;;;;64.25;8.68;;;;;;;9.83;100.00;101073.47;4988700;28;20033;-64
2022/12/24 08:15:51;;;;;;;59.58;9.73;;;;;;;9.83;100.00;101084.00;4990228;28;20030;-64
2022/12/24 08:18:16;;;;;;;74.68;9.20;;;;;;;9.95;100.00;101079.28;4991840;28;20026;-66
2022/12/24 08:20:42;;;;;;;61.60;7.70;;;;;;;9.89;100.00;101087.34;4991263;28;20030;-65
2022/12/24 08:23:07;;;;;;;61.10;7.70;;;;;;;9.90;100.00;101094.34;4991056;28;20477;-64
2022/12/24 08:25:33;;;;;;;55.55;8.35;;;;;;;9.91;100.00;101094.31;4990491;28;20031;-65
2022/12/24 08:27:58;;;;;;;46.47;7.25;;;;;;;9.90;100.00;101099.63;4991665;28;20405;-65
2022/12/24 08:30:24;;;;;;;64.65;7.72;;;;;;;10.01;100.00;101108.06;4989885;28;20113;-63
2022/12/24 08:32:49;;;;;;;66.55;7.88;;;;;;;10.07;100.00;101107.03;4992209;28;20026;-65
2022/12/24 08:35:15;;;;;;;63.53;8.60;;;;;;;10.04;100.00;101113.25;5009303;28;20116;-63
2022/12/24 08:37:40;;;;;;;53.42;8.02;;;;;;;10.06;100.00;101119.34;5009632;28;20109;-64
2022/12/24 08:40:06;;;;;;;67.88;8.02;;;;;;;10.15;100.00;101125.25;5009763;28;20129;-62
2022/12/24 08:42:31;;;;;;;57.50;7.97;;;;;;;10.19;100.00;101126.91;5008298;28;20495;-64
2022/12/24 08:44:56;;;;;;;60.30;10.27;;;;;;;10.22;100.00;101117.16;4990234;28;20050;-64
2022/12/24 08:47:22;;;;;;;59.10;8.05;;;;;;;10.37;100.00;101133.44;4989962;28;20076;-63
2022/12/24 08:49:47;;;;;;;58.60;7.60;;;;;;;10.34;100.00;101137.03;4988737;28;20077;-64
2022/12/24 08:52:12;;;;;;;69.18;8.38;;;;;;;10.46;100.00;101141.13;4973196;28;20038;-63
2022/12/24 08:54:38;;;;;;;62.38;7.80;;;;;;;10.55;100.00;101152.28;4989746;28;20033;-62
2022/12/24 08:57:03;;;;;;;50.13;7.93;;;;;;;10.66;100.00;101141.44;4988669;28;20026;-64
2022/12/24 08:59:28;;;;;;;65.22;7.40;;;;;;;10.68;100.00;101150.13;4991075;28;20432;-63
2022/12/24 09:01:54;;;;;;;52.95;6.35;;;;;;;10.79;100.00;101163.88;4998410;28;20410;-61
2022/12/24 09:04:19;;;;;;;63.33;7.55;;;;;;;10.85;100.00;101160.19;4990971;28;20385;-62
2022/12/24 09:06:44;;;;;;;54.70;8.57;;;;;;;10.83;100.00;101162.00;4989499;28;20473;-63
2022/12/24 09:09:10;;;;;;;43.13;7.18;;;;;;;10.90;100.00;101170.63;4989940;28;20127;-63
2022/12/24 09:11:35;;;;;;;48.28;7.85;;;;;;;11.00;100.00;101172.06;4989643;28;20026;-62
2022/12/24 09:14:01;;;;;;;53.92;8.02;;;;;;;10.97;100.00;101173.03;4990506;28;20072;-63
2022/12/24 09:16:26;;;;;;;51.38;6.25;;;;;;;10.96;100.00;101171.28;4989635;28;20432;-63
2022/12/24 09:18:51;;;;;;;53.30;7.30;;;;;;;11.01;100.00;101180.84;4989948;28;20030;-58
2022/12/24 09:21:17;;;;;;;56.78;8.20;;;;;;;11.01;100.00;101173.78;4990471;28;20022;-64
2022/12/24 09:23:45;;;;;;;62.50;9.77;;;;;;;11.01;100.00;101192.22;4989711;28;20088;-65
2022/12/24 09:26:19;;;;;;;50.53;8.75;;;;;;;11.03;100.00;101203.59;4989643;28;20501;-64
2022/12/24 09:28:45;;;;;;;46.33;8.52;;;;;;;11.00;100.00;101198.44;4990423;28;20030;-65
2022/12/24 09:31:11;;;;;;;55.58;7.57;;;;;;;10.89;100.00;101197.91;4972124;28;20037;-63
2022/12/24 09:33:38;;;;;;;54.28;7.18;;;;;;;10.93;100.00;101207.44;4972584;28;20214;-64
2022/12/24 09:36:04;;;;;;;41.78;7.25;;;;;;;11.08;100.00;101209.59;4989613;28;20030;-64
2022/12/24 09:38:30;;;;;;;39.95;6.75;;;;;;;11.08;100.00;101212.22;4990000;28;20031;-61
2022/12/24 09:40:57;;;;;;;44.95;7.38;;;;;;;11.19;100.00;101211.91;4984712;28;20110;-63
2022/12/24 09:43:24;;;;;;;41.17;6.43;;;;;;;11.27;100.00;101211.69;5009552;28;20052;-63
2022/12/24 09:46:16;;;;;;;46.35;7.50;;;;;;;11.24;100.00;101202.09;4976225;28;20036;-62
2022/12/24 09:48:45;;;;;;;45.28;6.93;;;;;;;11.23;100.00;101207.41;4965876;28;20056;-61
2022/12/24 09:51:19;;;;;;;37.88;6.38;;;;;;;11.26;100.00;101225.78;4986509;28;20078;-65
2022/12/24 09:53:52;;;;;;;45.20;6.00;;;;;;;11.29;100.00;101211.63;4988880;28;20042;-63
2022/12/24 09:56:21;;;;;;;43.72;7.05;;;;;;;11.40;100.00;101213.91;4975434;28;20117;-63
2022/12/24 09:58:49;;;;;;;44.83;6.68;;;;;;;11.29;100.00;101207.22;4970391;28;20101;-63
2022/12/24 10:01:15;;;;;;;44.47;7.10;;;;;;;11.18;100.00;101223.38;4972574;28;20435;-66
2022/12/24 10:03:41;;;;;;;32.38;5.13;;;;;;;11.22;100.00;101219.72;4971353;28;20289;-64
2022/12/24 10:06:14;;;;;;;40.58;7.30;;;;;;;11.16;100.00;101221.69;4968009;28;20077;-63
2022/12/24 10:08:47;;;;;;;46.70;6.35;;;;;;;11.29;100.00;101224.84;4988334;28;20512;-65
2022/12/24 10:11:27;;;;;;;37.55;5.95;;;;;;;11.42;100.00;101220.03;4988169;28;20026;-59
2022/12/24 10:14:12;;;;;;;45.85;6.50;;;;;;;11.57;100.00;101227.47;4988715;28;20064;-62
2022/12/24 10:16:56;;;;;;;34.55;5.65;;;;;;;11.58;100.00;101225.69;4984299;28;20026;-63
2022/12/24 10:19:47;;;;;;;35.40;5.13;;;;;;;11.57;100.00;101229.25;4985381;28;20065;-64
2022/12/24 10:22:33;;;;;;;44.50;5.68;;;;;;;11.41;100.00;101227.06;4987815;28;20509;-64
2022/12/24 10:25:19;;;;;;;31.67;5.13;;;;;;;11.47;100.00;101236.59;5002352;28;20029;-64
2022/12/24 10:27:44;;;;;;;38.88;5.00;;;;;;;11.49;100.00;101237.38;4970057;28;20030;-64
2022/12/24 10:30:18;;;;;;;40.28;6.00;;;;;;;11.47;100.00;101239.22;4955679;28;20058;-65
2022/12/24 10:32:46;;;;;;;46.95;5.72;;;;;;;11.58;100.00;101241.50;4989406;28;20045;-64
2022/12/24 10:35:15;;;;;;;37.80;5.75;;;;;;;11.55;100.00;101242.47;4972325;28;20476;-64
2022/12/24 10:37:46;;;;;;;37.70;5.37;;;;;;;11.52;100.00;101242.56;4989835;28;20137;-61
2022/12/24 10:40:44;;;;;;;40.47;5.28;;;;;;;11.43;100.00;101240.22;4954552;28;20528;-63
2022/12/24 10:43:16;;;;;;;40.15;5.75;;;;;;;11.45;100.00;101251.59;4984571;28;20053;-64
2022/12/24 10:45:45;;;;;;;30.63;5.28;;;;;;;11.44;100.00;101245.44;4991101;28;20329;-63
2022/12/24 10:48:18;;;;;;;27.67;5.95;;;;;;;11.53;100.00;101259.28;4980204;28;20032;-64
2022/12/24 10:50:59;;;;;;;40.47;5.68;;;;;;;11.45;100.00;101256.88;5007831;28;20045;-60
2022/12/24 10:53:53;;;;;;;36.15;6.32;;;;;;;11.42;100.00;101259.59;4979208;28;20044;-66
2022/12/24 10:56:20;;;;;;;40.95;5.57;;;;;;;11.63;100.00;101261.56;4968873;28;20071;-65
2022/12/24 10:58:50;;;;;;;38.53;5.05;;;;;;;11.49;100.00;101258.50;4989171;28;20049;-64
2022/12/24 11:01:16;;;;;;;33.30;5.05;;;;;;;11.55;100.00;101255.69;4971922;28;20074;-61
2022/12/24 11:03:42;;;;;;;33.67;5.00;;;;;;;11.54;100.00;101261.88;4988737;28;20077;-65
2022/12/24 11:06:13;;;;;;;42.80;5.82;;;;;;;11.43;100.00;101264.84;4988556;28;20026;-64
2022/12/24 11:08:41;;;;;;;36.10;6.07;;;;;;;11.42;100.00;101268.41;4985776;28;20056;-64
2022/12/24 11:11:11;;;;;;;45.15;8.15;;;;;;;11.45;100.00;101254.25;4970340;28;20027;-64
2022/12/24 11:13:48;;;;;;;34.75;6.65;;;;;;;11.33;100.00;101264.28;4971187;28;20033;-65
2022/12/24 11:16:22;;;;;;;38.13;6.30;;;;;;;11.48;100.00;101259.41;4985557;28;20024;-63
2022/12/24 11:18:53;;;;;;;34.35;6.63;;;;;;;11.50;100.00;101260.25;4970797;28;20022;-63
2022/12/24 11:21:29;;;;;;;41.47;6.55;;;;;;;11.40;100.00;101264.94;4988764;28;20022;-64
2022/12/24 11:24:11;;;;;;;38.45;5.57;;;;;;;11.40;100.00;101253.50;4988154;28;20064;-63
2022/12/24 11:26:36;;;;;;;34.45;5.15;;;;;;;11.37;100.00;101265.91;4988114;28;20396;-64
2022/12/24 11:29:07;;;;;;;38.15;5.93;;;;;;;11.50;100.00;101260.25;4988680;28;20030;-64